Aérodrome :
LOGIN :

S'inscrire | Disclaimer

   EN    FR    IT 

 










Légende :    VFR   VFR Marginal   IFR   IFR Intensif   IFR Très Intensif
Visi : 
Plafond : 
>= 8 km
>= 3000ft
5 à 8 km
1000 à 3000 ft
1500m à 5 km
500 à 1000 ft
800 à 1500m
200 à 500 ft
< 800m
< 200 ft
Symboles :   Orages  Brouillard  Fortes neiges  Fortes précipitations  Vent > 20 kt
SIGMETs :   Divers  Orages  Givrage  Turbulence  Onde Orograph.  Cendres Volcan.






- Altitude de l'aérodrome : 100 ft
- Code IATA : DCI


LIED - Decimomannu Air Base

DERNIER METAR :
  • 131455Z 15008KT CAVOK 35/07 Q1009 RMK SKC VIS MIN 9999 WIND THR35 /////KT WIND THR17 15007KT BLU

METARs EXPIRÉS :
  • 131355Z 15010KT CAVOK 36/12 Q1009 RMK SKC VIS MIN 9999 WIND THR35 /////KT WIND THR17 15009KT BLU
  • 131255Z 35004KT CAVOK 36/13 Q1010 RMK SKC VIS MIN 9999 WIND THR35 /////KT WIND THR17 35007KT BLU
  • 131155Z 32006KT CAVOK 35/11 Q1010
  • 131055Z 34006KT CAVOK 35/10 Q1010 RMK SKC VIS MIN 9999 WIND THR35 /////KT WIND THR17 32007KT BLU

TAF TAF LIED
Valide du 13 à 15h jusqu'au 14 à 00h UTC


131400Z 1315/1324 15008KT CAVOK



MET'MAP, la Météo Aéronautique d'un coup d'oeil ! - Copyright ORBIFLY Décembre 2007 - Disclaimer

ORBIFLY MET'MAP TEAM :

Programmation & Développement : Alexandra Zaïnal
Sur une idée originale de : Baudouin d'Aumeries
Soutien technique & logistique : Manuel Goepfert
Assistance : Marc-Olivier Méhu




SOURCES & CREDITS :

   NOAA